createdAt,value
2018-05-08T00:00:53.000Z,100254
2018-05-08T00:02:53.000Z,100253
2018-05-08T00:04:53.000Z,100261
2018-05-08T00:06:53.000Z,100254
2018-05-08T00:07:53.000Z,100254
2018-05-08T00:09:53.000Z,100252
2018-05-08T00:11:38.000Z,100253
2018-05-08T00:12:53.000Z,100255
2018-05-08T00:14:53.000Z,100252
2018-05-08T00:15:53.000Z,100245
2018-05-08T00:17:38.000Z,100248
2018-05-08T00:18:53.000Z,100248
2018-05-08T00:20:53.000Z,100245
2018-05-08T00:22:53.000Z,100248
2018-05-08T00:24:53.000Z,100248
2018-05-08T00:26:37.000Z,100238
2018-05-08T00:27:52.000Z,100238
2018-05-08T00:29:52.000Z,100231
2018-05-08T00:31:52.000Z,100227
2018-05-08T00:33:52.000Z,100229
2018-05-08T00:35:52.000Z,100221
2018-05-08T00:37:52.000Z,100218
2018-05-08T00:38:52.000Z,100216
2018-05-08T00:39:52.000Z,100213
2018-05-08T00:41:37.000Z,100213
2018-05-08T00:42:52.000Z,100210
2018-05-08T00:43:52.000Z,100207
2018-05-08T00:44:52.000Z,100209
2018-05-08T00:46:52.000Z,100205
2018-05-08T00:48:52.000Z,100198
2018-05-08T00:50:52.000Z,100199
2018-05-08T00:52:52.000Z,100197
2018-05-08T00:54:52.000Z,100198
2018-05-08T00:56:52.000Z,100200
2018-05-08T00:58:52.000Z,100193
2018-05-08T00:59:52.000Z,100195
2018-05-08T01:01:52.000Z,100192
2018-05-08T01:03:52.000Z,100192
2018-05-08T01:04:52.000Z,100192
2018-05-08T01:06:52.000Z,100193
2018-05-08T01:08:52.000Z,100194
2018-05-08T01:10:52.000Z,100194
2018-05-08T01:11:52.000Z,100194
2018-05-08T01:13:52.000Z,100193
2018-05-08T01:14:52.000Z,100190
2018-05-08T01:16:37.000Z,100190
2018-05-08T01:17:52.000Z,100190
2018-05-08T01:19:52.000Z,100187
2018-05-08T01:20:52.000Z,100187
2018-05-08T01:21:52.000Z,100185
2018-05-08T01:23:52.000Z,100189
2018-05-08T01:25:52.000Z,100185
2018-05-08T01:27:52.000Z,100183
2018-05-08T01:28:52.000Z,100182
2018-05-08T01:30:52.000Z,100183
2018-05-08T01:32:52.000Z,100181
2018-05-08T01:34:52.000Z,100182
2018-05-08T01:36:52.000Z,100177
2018-05-08T01:38:38.000Z,100171
2018-05-08T01:39:52.000Z,100176
2018-05-08T01:41:52.000Z,100176
2018-05-08T01:43:52.000Z,100169
2018-05-08T01:44:52.000Z,100171
2018-05-08T01:46:52.000Z,100175
2018-05-08T01:48:52.000Z,100171
2018-05-08T01:50:52.000Z,100172
2018-05-08T01:52:37.000Z,100168
2018-05-08T01:53:52.000Z,100170
2018-05-08T01:54:52.000Z,100173
2018-05-08T01:56:52.000Z,100172
2018-05-08T01:58:52.000Z,100169
2018-05-08T01:59:52.000Z,100169
2018-05-08T02:00:52.000Z,100176
2018-05-08T02:02:53.000Z,100171
2018-05-08T02:04:52.000Z,100169
2018-05-08T02:06:53.000Z,100168
2018-05-08T02:08:37.000Z,100166
2018-05-08T02:09:37.000Z,100164
2018-05-08T02:10:52.000Z,100164
2018-05-08T02:12:52.000Z,100168
2018-05-08T02:14:52.000Z,100165
2018-05-08T02:16:52.000Z,100161
2018-05-08T02:17:52.000Z,100163
2018-05-08T02:19:52.000Z,100158
2018-05-08T02:21:53.000Z,100157
2018-05-08T02:23:37.000Z,100153
2018-05-08T02:24:52.000Z,100159
2018-05-08T02:25:52.000Z,100155
2018-05-08T02:27:52.000Z,100150
2018-05-08T02:29:52.000Z,100153
2018-05-08T02:31:37.000Z,100143
2018-05-08T02:32:52.000Z,100144
2018-05-08T02:34:52.000Z,100141
2018-05-08T02:36:52.000Z,100141
2018-05-08T02:37:52.000Z,100139
2018-05-08T02:39:37.000Z,100144
2018-05-08T02:40:52.000Z,100136
2018-05-08T02:42:37.000Z,100142
2018-05-08T02:43:52.000Z,100135
2018-05-08T02:45:37.000Z,100142
2018-05-08T02:46:52.000Z,100143
2018-05-08T02:48:52.000Z,100145
2018-05-08T02:50:52.000Z,100134
2018-05-08T02:51:52.000Z,100137
2018-05-08T02:53:52.000Z,100139
2018-05-08T02:55:52.000Z,100130
2018-05-08T02:57:52.000Z,100137
2018-05-08T02:58:52.000Z,100130
2018-05-08T03:00:37.000Z,100131
2018-05-08T03:01:52.000Z,100124
2018-05-08T03:03:52.000Z,100130
2018-05-08T03:05:52.000Z,100128
2018-05-08T03:07:52.000Z,100129
2018-05-08T03:08:52.000Z,100134
2018-05-08T03:10:52.000Z,100130
2018-05-08T03:12:52.000Z,100127
2018-05-08T03:14:52.000Z,100126
2018-05-08T03:16:52.000Z,100130
2018-05-08T03:18:52.000Z,100131
2018-05-08T03:20:37.000Z,100130
2018-05-08T03:21:52.000Z,100126
2018-05-08T03:23:52.000Z,100130
2018-05-08T03:25:52.000Z,100126
2018-05-08T03:27:52.000Z,100122
2018-05-08T03:29:52.000Z,100121
2018-05-08T03:31:52.000Z,100123
2018-05-08T03:32:52.000Z,100128
2018-05-08T03:34:52.000Z,100129
2018-05-08T03:36:53.000Z,100124
2018-05-08T03:38:53.000Z,100125
2018-05-08T03:39:53.000Z,100126
2018-05-08T03:41:53.000Z,100125
2018-05-08T03:43:53.000Z,100125
2018-05-08T03:45:53.000Z,100123
2018-05-08T03:47:37.000Z,100125
2018-05-08T03:48:53.000Z,100123
2018-05-08T03:50:53.000Z,100122
2018-05-08T03:51:53.000Z,100122
2018-05-08T03:53:53.000Z,100122
2018-05-08T03:55:37.000Z,100124
2018-05-08T03:56:53.000Z,100120
2018-05-08T03:58:53.000Z,100120
2018-05-08T04:00:53.000Z,100116
2018-05-08T04:02:37.000Z,100111
2018-05-08T04:03:53.000Z,100111
2018-05-08T04:05:37.000Z,100110
2018-05-08T04:06:53.000Z,100108
2018-05-08T04:07:53.000Z,100106
2018-05-08T04:08:53.000Z,100105
2018-05-08T04:10:53.000Z,100108
2018-05-08T04:12:53.000Z,100108
2018-05-08T04:14:53.000Z,100107
2018-05-08T04:15:53.000Z,100110
2018-05-08T04:16:53.000Z,100102
2018-05-08T04:18:53.000Z,100101
2018-05-08T04:20:53.000Z,100093
2018-05-08T04:22:37.000Z,100094
2018-05-08T04:23:53.000Z,100091
2018-05-08T04:24:53.000Z,100091
2018-05-08T04:26:53.000Z,100092
2018-05-08T04:27:53.000Z,100094
2018-05-08T04:29:53.000Z,100097
2018-05-08T04:31:53.000Z,100093
2018-05-08T04:33:53.000Z,100094
2018-05-08T04:35:53.000Z,100092
2018-05-08T04:36:53.000Z,100094
2018-05-08T04:37:53.000Z,100094
2018-05-08T04:39:53.000Z,100090
2018-05-08T04:40:53.000Z,100090
2018-05-08T04:42:53.000Z,100089
2018-05-08T04:43:53.000Z,100085
2018-05-08T04:45:53.000Z,100085
2018-05-08T04:46:53.000Z,100085
2018-05-08T04:48:38.000Z,100088
2018-05-08T04:49:53.000Z,100089
2018-05-08T04:51:53.000Z,100081
2018-05-08T04:53:23.000Z,100076
2018-05-08T04:54:53.000Z,100081
2018-05-08T04:56:53.000Z,100081
2018-05-08T04:57:53.000Z,100079
2018-05-08T04:58:53.000Z,100076
2018-05-08T05:00:53.000Z,100080
2018-05-08T05:01:53.000Z,100073
2018-05-08T05:02:53.000Z,100074
2018-05-08T05:03:53.000Z,100071
2018-05-08T05:05:53.000Z,100072
2018-05-08T05:06:53.000Z,100067
2018-05-08T05:08:53.000Z,100071
2018-05-08T05:10:53.000Z,100072
2018-05-08T05:11:53.000Z,100067
2018-05-08T05:12:53.000Z,100067
2018-05-08T05:14:53.000Z,100067
2018-05-08T05:16:38.000Z,100065
2018-05-08T05:17:53.000Z,100063
2018-05-08T05:19:38.000Z,100063
2018-05-08T05:20:53.000Z,100065
2018-05-08T05:22:53.000Z,100066
2018-05-08T05:23:53.000Z,100065
2018-05-08T05:24:53.000Z,100062
2018-05-08T05:25:53.000Z,100061
2018-05-08T05:27:53.000Z,100064
2018-05-08T05:28:53.000Z,100064
2018-05-08T05:30:53.000Z,100066
2018-05-08T05:32:53.000Z,100062
2018-05-08T05:34:53.000Z,100067
2018-05-08T05:35:53.000Z,100067
2018-05-08T05:37:53.000Z,100060
2018-05-08T05:39:53.000Z,100062
2018-05-08T05:41:53.000Z,100059
2018-05-08T05:42:53.000Z,100056
2018-05-08T05:44:38.000Z,100057
2018-05-08T05:45:53.000Z,100055
2018-05-08T05:47:53.000Z,100051
2018-05-08T05:48:53.000Z,100049
2018-05-08T05:50:53.000Z,100055
2018-05-08T05:52:53.000Z,100049
2018-05-08T05:54:38.000Z,100052
2018-05-08T05:55:53.000Z,100051
2018-05-08T05:56:53.000Z,100054
2018-05-08T05:58:53.000Z,100051
2018-05-08T06:00:53.000Z,100050
2018-05-08T06:02:53.000Z,100047
2018-05-08T06:04:53.000Z,100041
2018-05-08T06:06:38.000Z,100046
2018-05-08T06:07:38.000Z,100049
2018-05-08T06:08:53.000Z,100045
2018-05-08T06:10:53.000Z,100045
2018-05-08T06:12:53.000Z,100047
2018-05-08T06:14:53.000Z,100046
2018-05-08T06:15:53.000Z,100048
2018-05-08T06:16:53.000Z,100054
2018-05-08T06:18:53.000Z,100049
2018-05-08T06:20:38.000Z,100044
2018-05-08T06:21:53.000Z,100042
2018-05-08T06:22:53.000Z,100044
2018-05-08T06:24:53.000Z,100038
2018-05-08T06:26:53.000Z,100041
2018-05-08T06:28:53.000Z,100038
2018-05-08T06:29:53.000Z,100038
2018-05-08T06:30:53.000Z,100036
2018-05-08T06:32:53.000Z,100040
2018-05-08T06:34:53.000Z,100041
2018-05-08T06:35:53.000Z,100038
2018-05-08T06:37:53.000Z,100034
2018-05-08T06:38:53.000Z,100036
2018-05-08T06:40:53.000Z,100040
2018-05-08T06:42:53.000Z,100036
2018-05-08T06:44:53.000Z,100028
2018-05-08T06:45:53.000Z,100031
2018-05-08T06:47:52.000Z,100029
2018-05-08T06:48:52.000Z,100034
2018-05-08T06:50:52.000Z,100028
2018-05-08T06:52:37.000Z,100030
2018-05-08T06:53:52.000Z,100027
2018-05-08T06:54:52.000Z,100020
2018-05-08T06:56:37.000Z,100024
2018-05-08T06:57:52.000Z,100023
2018-05-08T06:59:52.000Z,100023
2018-05-08T07:00:52.000Z,100025
2018-05-08T07:02:52.000Z,100028
2018-05-08T07:04:37.000Z,100029
2018-05-08T07:05:53.000Z,100029
2018-05-08T07:07:52.000Z,100023
2018-05-08T07:09:52.000Z,100026
2018-05-08T07:11:37.000Z,100026
2018-05-08T07:12:52.000Z,100032
2018-05-08T07:14:37.000Z,100021
2018-05-08T07:15:52.000Z,100027
2018-05-08T07:16:53.000Z,100020
2018-05-08T07:18:53.000Z,100022
2018-05-08T07:20:37.000Z,100022
2018-05-08T07:21:52.000Z,100017
2018-05-08T07:22:52.000Z,100021
2018-05-08T07:24:52.000Z,100028
2018-05-08T07:26:52.000Z,100023
2018-05-08T07:28:52.000Z,100020
2018-05-08T07:29:52.000Z,100022
2018-05-08T07:31:37.000Z,100028
2018-05-08T07:33:52.000Z,100024
2018-05-08T07:34:52.000Z,100029
2018-05-08T07:36:52.000Z,100022
2018-05-08T07:37:52.000Z,100025
2018-05-08T07:39:53.000Z,100026
2018-05-08T07:41:37.000Z,100024
2018-05-08T07:42:52.000Z,100021
2018-05-08T07:43:52.000Z,100022
2018-05-08T07:45:52.000Z,100022
2018-05-08T07:46:53.000Z,100021
2018-05-08T07:47:53.000Z,100025
2018-05-08T07:49:37.000Z,100021
2018-05-08T07:50:53.000Z,100010
2018-05-08T07:51:53.000Z,100017
2018-05-08T07:53:53.000Z,100011
2018-05-08T07:55:53.000Z,100010
2018-05-08T07:56:53.000Z,100011
2018-05-08T07:58:53.000Z,100007
2018-05-08T07:59:53.000Z,100006
2018-05-08T08:01:53.000Z,100010
2018-05-08T08:03:23.000Z,100016
2018-05-08T08:04:53.000Z,100014
2018-05-08T08:06:53.000Z,100012
2018-05-08T08:08:38.000Z,100012
2018-05-08T08:09:53.000Z,100010
2018-05-08T08:10:53.000Z,100014
2018-05-08T08:12:53.000Z,100011
2018-05-08T08:14:38.000Z,100014
2018-05-08T08:15:53.000Z,100012
2018-05-08T08:17:53.000Z,100009
2018-05-08T08:18:53.000Z,100010
2018-05-08T08:20:38.000Z,100009
2018-05-08T08:21:53.000Z,100009
2018-05-08T08:23:53.000Z,100002
2018-05-08T08:25:53.000Z,100004
2018-05-08T08:26:53.000Z,100007
2018-05-08T08:28:38.000Z,99996
2018-05-08T08:29:53.000Z,100001
2018-05-08T08:30:53.000Z,99998
2018-05-08T08:32:38.000Z,100000
2018-05-08T08:33:53.000Z,99998
2018-05-08T08:35:53.000Z,99995
2018-05-08T08:36:53.000Z,99995
2018-05-08T08:38:38.000Z,99997
2018-05-08T08:39:53.000Z,99992
2018-05-08T08:40:53.000Z,100000
2018-05-08T08:41:53.000Z,99993
2018-05-08T08:43:23.000Z,99998
2018-05-08T08:44:53.000Z,99991
2018-05-08T08:46:53.000Z,99996
2018-05-08T08:48:38.000Z,99995
2018-05-08T08:49:53.000Z,99997
2018-05-08T08:50:53.000Z,99994
2018-05-08T08:51:53.000Z,99997
2018-05-08T08:53:53.000Z,99997
2018-05-08T08:54:53.000Z,100000
2018-05-08T08:55:53.000Z,99996
2018-05-08T08:57:53.000Z,99995
2018-05-08T08:59:38.000Z,99992
2018-05-08T09:00:53.000Z,99993
2018-05-08T09:02:38.000Z,99990
2018-05-08T09:03:53.000Z,99989
2018-05-08T09:05:53.000Z,99989
2018-05-08T09:07:53.000Z,99981
2018-05-08T09:08:53.000Z,99983
2018-05-08T09:10:53.000Z,99975
2018-05-08T09:12:38.000Z,99976
2018-05-08T09:13:53.000Z,99977
2018-05-08T09:15:53.000Z,99976
2018-05-08T09:16:53.000Z,99974
2018-05-08T09:18:53.000Z,99965
2018-05-08T09:19:53.000Z,99965
2018-05-08T09:21:53.000Z,99961
2018-05-08T09:22:53.000Z,99959
2018-05-08T09:24:53.000Z,99951
2018-05-08T09:26:53.000Z,99955
2018-05-08T09:27:53.000Z,99953
2018-05-08T09:28:53.000Z,99948
2018-05-08T09:30:38.000Z,99945
2018-05-08T09:31:53.000Z,99933
2018-05-08T09:33:53.000Z,99931
2018-05-08T09:35:53.000Z,99935
2018-05-08T09:36:53.000Z,99938
2018-05-08T09:37:53.000Z,99934
2018-05-08T09:39:53.000Z,99927
2018-05-08T09:40:53.000Z,99928
2018-05-08T09:42:53.000Z,99921
2018-05-08T09:44:53.000Z,99922
2018-05-08T09:45:53.000Z,99916
2018-05-08T09:47:38.000Z,99906
2018-05-08T09:48:53.000Z,99908
2018-05-08T09:50:53.000Z,99901
2018-05-08T09:52:53.000Z,99900
2018-05-08T09:54:53.000Z,99900
2018-05-08T09:55:53.000Z,99904
2018-05-08T09:57:53.000Z,99897
2018-05-08T09:59:53.000Z,99899
2018-05-08T10:01:53.000Z,99891
2018-05-08T10:03:37.000Z,99897
2018-05-08T10:04:53.000Z,99897
2018-05-08T10:06:53.000Z,99888
2018-05-08T10:07:53.000Z,99891
2018-05-08T10:09:53.000Z,99887
2018-05-08T10:11:53.000Z,99887
2018-05-08T10:13:53.000Z,99883
2018-05-08T10:15:53.000Z,99891
2018-05-08T10:16:53.000Z,99879
2018-05-08T10:18:53.000Z,99885
2018-05-08T10:20:53.000Z,99873
2018-05-08T10:22:37.000Z,99880
2018-05-08T10:23:53.000Z,99879
2018-05-08T10:24:53.000Z,99873
2018-05-08T10:26:37.000Z,99872
2018-05-08T10:27:53.000Z,99870
2018-05-08T10:29:53.000Z,99867
2018-05-08T10:31:53.000Z,99865
2018-05-08T10:32:53.000Z,99866
2018-05-08T10:34:37.000Z,99863
2018-05-08T10:35:53.000Z,99860
2018-05-08T10:36:53.000Z,99855
2018-05-08T10:38:53.000Z,99852
2018-05-08T10:40:53.000Z,99844
2018-05-08T10:42:53.000Z,99844
2018-05-08T10:44:37.000Z,99846
2018-05-08T10:45:53.000Z,99847
2018-05-08T10:47:53.000Z,99841
2018-05-08T10:48:53.000Z,99835
2018-05-08T10:53:53.000Z,99827
2018-05-08T10:55:39.000Z,99827
2018-05-08T10:57:23.000Z,99831
2018-05-08T10:59:39.000Z,99825
2018-05-08T11:01:38.000Z,99822
2018-05-08T11:03:39.000Z,99827
2018-05-08T11:05:39.000Z,99824
2018-05-08T11:07:38.000Z,99821
2018-05-08T11:09:38.000Z,99819
2018-05-08T11:11:38.000Z,99816
2018-05-08T11:13:38.000Z,99816
2018-05-08T11:15:38.000Z,99815
2018-05-08T11:16:38.000Z,99803
2018-05-08T11:18:08.000Z,99805
2018-05-08T11:19:38.000Z,99802
2018-05-08T11:20:38.000Z,99803
2018-05-08T11:22:23.000Z,99800
2018-05-08T11:24:38.000Z,99801
2018-05-08T11:25:39.000Z,99800
2018-05-08T11:27:38.000Z,99796
2018-05-08T11:29:38.000Z,99791
2018-05-08T11:31:38.000Z,99787
2018-05-08T11:33:38.000Z,99782
2018-05-08T11:35:38.000Z,99783
2018-05-08T11:37:38.000Z,99779
2018-05-08T11:38:38.000Z,99784
2018-05-08T11:39:38.000Z,99773
2018-05-08T11:41:38.000Z,99784
2018-05-08T11:42:38.000Z,99778
2018-05-08T11:44:38.000Z,99775
2018-05-08T11:46:38.000Z,99776
2018-05-08T11:48:38.000Z,99765
2018-05-08T11:49:38.000Z,99769
2018-05-08T11:51:38.000Z,99761
2018-05-08T11:53:38.000Z,99768
2018-05-08T11:54:38.000Z,99766
2018-05-08T11:56:38.000Z,99760
2018-05-08T11:58:38.000Z,99758
2018-05-08T12:00:23.000Z,99756
2018-05-08T12:01:38.000Z,99759
2018-05-08T12:03:23.000Z,99753
2018-05-08T12:04:38.000Z,99747
2018-05-08T12:06:39.000Z,99745
2018-05-08T12:08:39.000Z,99742
2018-05-08T12:09:39.000Z,99750
2018-05-08T12:11:39.000Z,99743
2018-05-08T12:12:39.000Z,99743
2018-05-08T12:14:39.000Z,99746
2018-05-08T12:16:39.000Z,99738
2018-05-08T12:18:39.000Z,99739
2018-05-08T12:20:39.000Z,99734
2018-05-08T12:22:39.000Z,99730
2018-05-08T12:23:39.000Z,99731
2018-05-08T12:25:39.000Z,99725
2018-05-08T12:26:39.000Z,99720
2018-05-08T12:28:39.000Z,99722
2018-05-08T12:29:39.000Z,99718
2018-05-08T12:31:24.000Z,99723
2018-05-08T12:32:39.000Z,99720
2018-05-08T12:33:39.000Z,99715
2018-05-08T12:35:39.000Z,99712
2018-05-08T12:37:24.000Z,99714
2018-05-08T12:38:39.000Z,99715
2018-05-08T12:40:39.000Z,99714
2018-05-08T12:42:24.000Z,99714
2018-05-08T12:44:39.000Z,99708
2018-05-08T12:45:39.000Z,99706
2018-05-08T12:47:24.000Z,99712
2018-05-08T12:48:39.000Z,99706
2018-05-08T12:50:39.000Z,99704
2018-05-08T12:52:39.000Z,99705
2018-05-08T12:53:39.000Z,99704
2018-05-08T12:55:39.000Z,99702
2018-05-08T12:57:39.000Z,99695
2018-05-08T12:59:24.000Z,99682
2018-05-08T13:00:39.000Z,99681
2018-05-08T13:02:39.000Z,99696
2018-05-08T13:04:39.000Z,99689
2018-05-08T13:06:39.000Z,99686
2018-05-08T13:08:39.000Z,99686
2018-05-08T13:10:39.000Z,99685
2018-05-08T13:12:24.000Z,99684
2018-05-08T13:13:39.000Z,99681
2018-05-08T13:15:24.000Z,99680
2018-05-08T13:16:39.000Z,99666
2018-05-08T13:18:39.000Z,99670
2018-05-08T13:20:39.000Z,99683
2018-05-08T13:21:39.000Z,99678
2018-05-08T13:23:39.000Z,99671
2018-05-08T13:25:39.000Z,99663
2018-05-08T13:27:39.000Z,99667
2018-05-08T13:29:39.000Z,99662
2018-05-08T13:30:39.000Z,99660
2018-05-08T13:32:24.000Z,99660
2018-05-08T13:34:24.000Z,99655
2018-05-08T13:35:39.000Z,99652
2018-05-08T13:37:39.000Z,99646
2018-05-08T13:39:39.000Z,99647
2018-05-08T13:40:39.000Z,99650
2018-05-08T13:42:39.000Z,99647
2018-05-08T13:44:39.000Z,99648
2018-05-08T13:46:39.000Z,99649
2018-05-08T13:48:39.000Z,99645
2018-05-08T13:49:39.000Z,99647
2018-05-08T13:51:09.000Z,99647
2018-05-08T13:52:39.000Z,99646
2018-05-08T13:54:39.000Z,99643
2018-05-08T13:56:39.000Z,99641
2018-05-08T13:57:39.000Z,99639
2018-05-08T13:59:39.000Z,99640
2018-05-08T14:01:39.000Z,99636
2018-05-08T14:03:39.000Z,99638
2018-05-08T14:04:39.000Z,99637
2018-05-08T14:06:39.000Z,99627
2018-05-08T14:08:24.000Z,99624
2018-05-08T14:09:39.000Z,99624
2018-05-08T14:11:39.000Z,99625
2018-05-08T14:13:39.000Z,99622
2018-05-08T14:15:39.000Z,99617
2018-05-08T14:16:39.000Z,99615
2018-05-08T14:18:39.000Z,99607
2018-05-08T14:20:39.000Z,99607
2018-05-08T14:22:39.000Z,99608
2018-05-08T14:23:39.000Z,99600
2018-05-08T14:25:39.000Z,99613
2018-05-08T14:27:38.000Z,99602
2018-05-08T14:28:39.000Z,99598
2018-05-08T14:30:39.000Z,99609
2018-05-08T14:31:39.000Z,99607
2018-05-08T14:33:39.000Z,99598
2018-05-08T14:35:39.000Z,99595
2018-05-08T14:36:39.000Z,99594
2018-05-08T14:38:39.000Z,99596
2018-05-08T14:40:39.000Z,99592
2018-05-08T14:41:39.000Z,99583
2018-05-08T14:43:39.000Z,99582
2018-05-08T14:44:39.000Z,99589
2018-05-08T14:46:39.000Z,99587
2018-05-08T14:47:39.000Z,99585
2018-05-08T14:49:39.000Z,99587
2018-05-08T14:51:39.000Z,99581
2018-05-08T14:53:39.000Z,99580
2018-05-08T14:55:39.000Z,99577
2018-05-08T14:57:23.000Z,99582
2018-05-08T14:58:39.000Z,99580
2018-05-08T15:00:23.000Z,99580
2018-05-08T15:01:39.000Z,99575
2018-05-08T15:03:39.000Z,99577
2018-05-08T15:05:39.000Z,99570
2018-05-08T15:06:39.000Z,99580
2018-05-08T15:08:39.000Z,99584
2018-05-08T15:10:39.000Z,99573
2018-05-08T15:11:39.000Z,99574
2018-05-08T15:13:39.000Z,99574
2018-05-08T15:15:23.000Z,99574
2018-05-08T15:16:39.000Z,99577
2018-05-08T15:18:39.000Z,99575
2018-05-08T15:20:39.000Z,99578
2018-05-08T15:22:39.000Z,99568
2018-05-08T15:23:39.000Z,99568
2018-05-08T15:25:39.000Z,99569
2018-05-08T15:27:39.000Z,99568
2018-05-08T15:29:24.000Z,99565
2018-05-08T15:30:39.000Z,99562
2018-05-08T15:32:39.000Z,99566
2018-05-08T15:34:39.000Z,99572
2018-05-08T15:35:39.000Z,99566
2018-05-08T15:36:39.000Z,99567
2018-05-08T15:38:39.000Z,99560
2018-05-08T15:40:39.000Z,99561
2018-05-08T15:41:39.000Z,99560
2018-05-08T15:43:24.000Z,99558
2018-05-08T15:44:39.000Z,99557
2018-05-08T15:46:39.000Z,99552
2018-05-08T15:48:39.000Z,99553
2018-05-08T15:49:39.000Z,99551
2018-05-08T15:51:39.000Z,99547
2018-05-08T15:53:39.000Z,99544
2018-05-08T15:55:39.000Z,99545
2018-05-08T15:57:39.000Z,99538
2018-05-08T15:59:39.000Z,99540
2018-05-08T16:01:39.000Z,99542
2018-05-08T16:03:39.000Z,99539
2018-05-08T16:04:39.000Z,99537
2018-05-08T16:05:39.000Z,99534
2018-05-08T16:07:39.000Z,99526
2018-05-08T16:09:39.000Z,99530
2018-05-08T16:11:39.000Z,99528
2018-05-08T16:12:39.000Z,99530
2018-05-08T16:14:24.000Z,99524
2018-05-08T16:15:39.000Z,99524
2018-05-08T16:17:39.000Z,99523
2018-05-08T16:19:39.000Z,99528
2018-05-08T16:20:39.000Z,99519
2018-05-08T16:22:39.000Z,99524
2018-05-08T16:24:24.000Z,99520
2018-05-08T16:25:39.000Z,99525
2018-05-08T16:27:39.000Z,99527
2018-05-08T16:28:39.000Z,99528
2018-05-08T16:30:39.000Z,99528
2018-05-08T16:31:39.000Z,99526
2018-05-08T16:33:39.000Z,99522
2018-05-08T16:35:39.000Z,99524
2018-05-08T16:36:39.000Z,99523
2018-05-08T16:38:39.000Z,99522
2018-05-08T16:40:24.000Z,99524
2018-05-08T16:41:39.000Z,99521
2018-05-08T16:43:39.000Z,99531
2018-05-08T16:45:08.000Z,99532
2018-05-08T16:46:39.000Z,99534
2018-05-08T16:47:39.000Z,99530
2018-05-08T16:49:39.000Z,99528
2018-05-08T16:50:39.000Z,99527
2018-05-08T16:52:39.000Z,99531
2018-05-08T16:54:24.000Z,99526
2018-05-08T16:55:39.000Z,99531
2018-05-08T16:56:39.000Z,99525
2018-05-08T16:57:39.000Z,99525
2018-05-08T16:59:39.000Z,99530
2018-05-08T17:00:39.000Z,99521
2018-05-08T17:02:39.000Z,99518
2018-05-08T17:03:39.000Z,99526
2018-05-08T17:05:39.000Z,99523
2018-05-08T17:06:39.000Z,99517
2018-05-08T17:07:39.000Z,99525
2018-05-08T17:09:39.000Z,99524
2018-05-08T17:11:39.000Z,99523
2018-05-08T17:12:39.000Z,99526
2018-05-08T17:13:39.000Z,99519
2018-05-08T17:15:39.000Z,99522
2018-05-08T17:17:39.000Z,99522
2018-05-08T17:18:39.000Z,99523
2018-05-08T17:20:39.000Z,99525
2018-05-08T17:22:39.000Z,99523
2018-05-08T17:23:39.000Z,99525
2018-05-08T17:25:39.000Z,99525
2018-05-08T17:26:39.000Z,99526
2018-05-08T17:28:39.000Z,99524
2018-05-08T17:29:39.000Z,99520
2018-05-08T17:31:39.000Z,99522
2018-05-08T17:33:39.000Z,99529
2018-05-08T17:34:39.000Z,99521
2018-05-08T17:36:39.000Z,99523
2018-05-08T17:38:39.000Z,99527
2018-05-08T17:40:39.000Z,99522
2018-05-08T17:42:39.000Z,99526
2018-05-08T17:44:39.000Z,99525
2018-05-08T17:45:39.000Z,99526
2018-05-08T17:47:39.000Z,99525
2018-05-08T17:49:39.000Z,99526
2018-05-08T17:51:39.000Z,99524
2018-05-08T17:53:39.000Z,99520
2018-05-08T17:55:24.000Z,99529
2018-05-08T17:56:39.000Z,99524
2018-05-08T17:57:39.000Z,99528
2018-05-08T17:58:39.000Z,99525
2018-05-08T18:00:39.000Z,99526
2018-05-08T18:01:39.000Z,99524
2018-05-08T18:03:39.000Z,99525
2018-05-08T18:04:39.000Z,99525
2018-05-08T18:06:39.000Z,99531
2018-05-08T18:08:39.000Z,99523
2018-05-08T18:10:39.000Z,99522
2018-05-08T18:12:39.000Z,99522
2018-05-08T18:14:39.000Z,99525
2018-05-08T18:15:39.000Z,99523
2018-05-08T18:17:39.000Z,99521
2018-05-08T18:18:39.000Z,99525
2018-05-08T18:20:39.000Z,99525
2018-05-08T18:21:39.000Z,99522
2018-05-08T18:23:39.000Z,99522
2018-05-08T18:24:39.000Z,99529
2018-05-08T18:26:24.000Z,99530
2018-05-08T18:27:39.000Z,99530
2018-05-08T18:29:39.000Z,99528
2018-05-08T18:31:39.000Z,99528
2018-05-08T18:33:39.000Z,99534
2018-05-08T18:34:39.000Z,99529
2018-05-08T18:36:39.000Z,99530
2018-05-08T18:38:39.000Z,99530
2018-05-08T18:40:39.000Z,99531
2018-05-08T18:42:39.000Z,99529
2018-05-08T18:44:39.000Z,99530
2018-05-08T18:46:39.000Z,99528
2018-05-08T18:48:39.000Z,99533
2018-05-08T18:50:24.000Z,99530
2018-05-08T18:51:39.000Z,99534
2018-05-08T18:52:39.000Z,99535
2018-05-08T18:54:24.000Z,99440
2018-05-08T18:55:39.000Z,99535
2018-05-08T18:56:39.000Z,99538
2018-05-08T18:58:39.000Z,99533
2018-05-08T19:00:39.000Z,99532
2018-05-08T19:02:39.000Z,99541
2018-05-08T19:04:24.000Z,99538
2018-05-08T19:05:39.000Z,99546
2018-05-08T19:07:24.000Z,99544
2018-05-08T19:08:39.000Z,99547
2018-05-08T19:10:39.000Z,99549
2018-05-08T19:12:39.000Z,99548
2018-05-08T19:14:39.000Z,99551
2018-05-08T19:16:24.000Z,99554
2018-05-08T19:17:39.000Z,99554
2018-05-08T19:18:39.000Z,99553
2018-05-08T19:19:39.000Z,99557
2018-05-08T19:21:39.000Z,99557
2018-05-08T19:23:24.000Z,99564
2018-05-08T19:24:39.000Z,99565
2018-05-08T19:25:39.000Z,99566
2018-05-08T19:27:39.000Z,99565
2018-05-08T19:28:39.000Z,99564
2018-05-08T19:30:39.000Z,99574
2018-05-08T19:32:24.000Z,99575
2018-05-08T19:33:39.000Z,99577
2018-05-08T19:34:39.000Z,99573
2018-05-08T19:36:39.000Z,99581
2018-05-08T19:37:39.000Z,99576
2018-05-08T19:38:39.000Z,99577
2018-05-08T19:40:39.000Z,99578
2018-05-08T19:41:39.000Z,99577
2018-05-08T19:43:24.000Z,99579
2018-05-08T19:44:39.000Z,99574
2018-05-08T19:46:24.000Z,99578
2018-05-08T19:47:39.000Z,99579
2018-05-08T19:49:24.000Z,99577
2018-05-08T19:50:39.000Z,99577
2018-05-08T19:52:39.000Z,99575
2018-05-08T19:54:39.000Z,99580
2018-05-08T19:56:39.000Z,99575
2018-05-08T19:57:39.000Z,99576
2018-05-08T19:58:39.000Z,99578
2018-05-08T20:00:39.000Z,99576
2018-05-08T20:01:39.000Z,99580
2018-05-08T20:03:39.000Z,99584
2018-05-08T20:05:39.000Z,99586
2018-05-08T20:06:39.000Z,99579
2018-05-08T20:08:39.000Z,99584
2018-05-08T20:10:24.000Z,99582
2018-05-08T20:11:39.000Z,99579
2018-05-08T20:13:39.000Z,99583
2018-05-08T20:14:39.000Z,99582
2018-05-08T20:16:39.000Z,99581
2018-05-08T20:18:39.000Z,99584
2018-05-08T20:19:39.000Z,99586
2018-05-08T20:21:39.000Z,99589
2018-05-08T20:22:39.000Z,99591
2018-05-08T20:24:24.000Z,99589
2018-05-08T20:25:39.000Z,99590
2018-05-08T20:26:39.000Z,99585
2018-05-08T20:27:39.000Z,99581
2018-05-08T20:29:39.000Z,99586
2018-05-08T20:31:39.000Z,99592
2018-05-08T20:33:39.000Z,99596
2018-05-08T20:35:39.000Z,99594
2018-05-08T20:37:39.000Z,99595
2018-05-08T20:39:39.000Z,99601
2018-05-08T20:40:39.000Z,99602
2018-05-08T20:42:39.000Z,99602